Gleisdorf, Austria
Current Conditions -  °F | °C
As of 6:50 AM on Wednesday 22 Oct 2014 (Local Time) from LOWG Reporting Station
Light Rain Light Rain  
Wind Chill: 42°   Ceiling: 5500
Heat Index: 45°   Visibility: 6mi
Dew Point: 36°   Wind: 5mph
Humidity: 71%   Direction: 340°NNW
Pressure: 29.71"   Gusts: NA
Location:  47.11°N, 15.71°E
Report Text: LOWG 220450Z 34004KT 250V020 9999 -RA SCT030 FEW040CB BKN055 07/02 Q1006 RERA NOSIG
Loading
Personal Weather Stations






























Interactive Weather Map
Tropical Storm Tracking
New forecast layout! Learn more

10-Day Weather Forecast

Advertisements
Track Severe Weather on mobile